sensor_id;sensor_type;location;lat;lon;timestamp;temperature;humidity
2477;DHT22;1249;51.270;6.756;2023-05-29T00:02:13;22.10;74.50
2477;DHT22;1249;51.270;6.756;2023-05-29T00:04:39;22.00;74.70
2477;DHT22;1249;51.270;6.756;2023-05-29T00:07:05;22.00;74.80
2477;DHT22;1249;51.270;6.756;2023-05-29T00:09:30;22.00;75.00
2477;DHT22;1249;51.270;6.756;2023-05-29T00:11:56;22.00;75.00
2477;DHT22;1249;51.270;6.756;2023-05-29T00:14:21;22.00;75.20
2477;DHT22;1249;51.270;6.756;2023-05-29T00:16:49;22.00;75.30
2477;DHT22;1249;51.270;6.756;2023-05-29T00:19:15;21.90;75.30
2477;DHT22;1249;51.270;6.756;2023-05-29T00:21:47;21.90;75.50
2477;DHT22;1249;51.270;6.756;2023-05-29T00:24:16;21.90;75.60
2477;DHT22;1249;51.270;6.756;2023-05-29T00:26:43;21.80;75.90
2477;DHT22;1249;51.270;6.756;2023-05-29T00:29:08;21.80;76.70
2477;DHT22;1249;51.270;6.756;2023-05-29T00:31:34;21.80;76.10
2477;DHT22;1249;51.270;6.756;2023-05-29T00:34:01;21.80;76.30
2477;DHT22;1249;51.270;6.756;2023-05-29T00:36:27;21.80;76.50
2477;DHT22;1249;51.270;6.756;2023-05-29T00:38:54;21.70;76.60
2477;DHT22;1249;51.270;6.756;2023-05-29T00:41:20;21.60;76.80
2477;DHT22;1249;51.270;6.756;2023-05-29T00:43:46;21.60;76.90
2477;DHT22;1249;51.270;6.756;2023-05-29T00:46:13;21.60;77.10
2477;DHT22;1249;51.270;6.756;2023-05-29T00:48:41;21.60;77.20
2477;DHT22;1249;51.270;6.756;2023-05-29T00:51:07;21.60;77.40
2477;DHT22;1249;51.270;6.756;2023-05-29T00:53:34;21.60;77.60
2477;DHT22;1249;51.270;6.756;2023-05-29T00:55:59;21.60;77.70
2477;DHT22;1249;51.270;6.756;2023-05-29T00:58:26;21.50;77.80
2477;DHT22;1249;51.270;6.756;2023-05-29T01:00:52;21.50;77.90
2477;DHT22;1249;51.270;6.756;2023-05-29T01:03:18;21.50;78.10
2477;DHT22;1249;51.270;6.756;2023-05-29T01:05:44;21.40;78.40
2477;DHT22;1249;51.270;6.756;2023-05-29T01:08:11;21.50;78.60
2477;DHT22;1249;51.270;6.756;2023-05-29T01:10:37;21.40;78.70
2477;DHT22;1249;51.270;6.756;2023-05-29T01:13:14;21.40;79.00
2477;DHT22;1249;51.270;6.756;2023-05-29T01:16:07;21.40;79.20
2477;DHT22;1249;51.270;6.756;2023-05-29T01:18:41;21.30;79.40
2477;DHT22;1249;51.270;6.756;2023-05-29T01:21:56;21.30;79.50
2477;DHT22;1249;51.270;6.756;2023-05-29T01:27:06;21.20;79.80
2477;DHT22;1249;51.270;6.756;2023-05-29T01:29:34;21.20;80.30
2477;DHT22;1249;51.270;6.756;2023-05-29T01:32:00;21.20;80.40
2477;DHT22;1249;51.270;6.756;2023-05-29T01:34:27;21.20;80.60
2477;DHT22;1249;51.270;6.756;2023-05-29T01:36:53;21.20;80.90
2477;DHT22;1249;51.270;6.756;2023-05-29T01:39:19;21.10;81.00
2477;DHT22;1249;51.270;6.756;2023-05-29T01:41:46;21.10;81.30
2477;DHT22;1249;51.270;6.756;2023-05-29T01:44:13;21.20;81.50
2477;DHT22;1249;51.270;6.756;2023-05-29T01:46:43;21.10;81.70
2477;DHT22;1249;51.270;6.756;2023-05-29T01:49:09;21.10;81.80
2477;DHT22;1249;51.270;6.756;2023-05-29T01:51:36;21.10;82.20
2477;DHT22;1249;51.270;6.756;2023-05-29T01:54:02;21.10;82.40
2477;DHT22;1249;51.270;6.756;2023-05-29T01:56:29;21.00;82.40
2477;DHT22;1249;51.270;6.756;2023-05-29T01:58:56;21.00;82.80
2477;DHT22;1249;51.270;6.756;2023-05-29T02:01:22;21.00;83.50
2477;DHT22;1249;51.270;6.756;2023-05-29T02:03:48;21.00;83.20
2477;DHT22;1249;51.270;6.756;2023-05-29T02:06:13;21.00;83.30
2477;DHT22;1249;51.270;6.756;2023-05-29T02:08:39;21.00;83.70
2477;DHT22;1249;51.270;6.756;2023-05-29T02:11:05;20.90;83.90
2477;DHT22;1249;51.270;6.756;2023-05-29T02:13:31;20.90;84.00
2477;DHT22;1249;51.270;6.756;2023-05-29T02:15:57;20.90;84.50
2477;DHT22;1249;51.270;6.756;2023-05-29T02:18:22;20.90;84.70
2477;DHT22;1249;51.270;6.756;2023-05-29T02:20:49;20.90;84.90
2477;DHT22;1249;51.270;6.756;2023-05-29T02:23:14;20.90;85.20
2477;DHT22;1249;51.270;6.756;2023-05-29T02:25:41;20.80;85.60
2477;DHT22;1249;51.270;6.756;2023-05-29T02:28:06;20.80;85.70
2477;DHT22;1249;51.270;6.756;2023-05-29T02:30:32;20.80;86.10
2477;DHT22;1249;51.270;6.756;2023-05-29T02:32:57;20.70;86.40
2477;DHT22;1249;51.270;6.756;2023-05-29T02:35:23;20.70;86.70
2477;DHT22;1249;51.270;6.756;2023-05-29T02:37:49;20.80;87.10
2477;DHT22;1249;51.270;6.756;2023-05-29T02:40:15;20.70;87.10
2477;DHT22;1249;51.270;6.756;2023-05-29T02:42:41;20.70;87.50
2477;DHT22;1249;51.270;6.756;2023-05-29T02:45:07;20.60;87.90
2477;DHT22;1249;51.270;6.756;2023-05-29T02:47:32;20.60;88.10
2477;DHT22;1249;51.270;6.756;2023-05-29T02:49:58;20.60;88.40
2477;DHT22;1249;51.270;6.756;2023-05-29T02:52:23;20.60;88.80
2477;DHT22;1249;51.270;6.756;2023-05-29T02:54:49;20.60;88.80
2477;DHT22;1249;51.270;6.756;2023-05-29T02:57:15;20.50;89.30
2477;DHT22;1249;51.270;6.756;2023-05-29T02:59:40;20.50;89.70
2477;DHT22;1249;51.270;6.756;2023-05-29T03:02:06;20.50;89.80
2477;DHT22;1249;51.270;6.756;2023-05-29T03:04:32;20.50;90.10
2477;DHT22;1249;51.270;6.756;2023-05-29T03:06:57;20.50;90.00
2477;DHT22;1249;51.270;6.756;2023-05-29T03:09:23;20.40;90.20
2477;DHT22;1249;51.270;6.756;2023-05-29T03:11:49;20.40;90.40
2477;DHT22;1249;51.270;6.756;2023-05-29T03:14:16;20.40;90.30
2477;DHT22;1249;51.270;6.756;2023-05-29T03:16:43;20.40;90.50
2477;DHT22;1249;51.270;6.756;2023-05-29T03:19:08;20.40;90.40
2477;DHT22;1249;51.270;6.756;2023-05-29T03:21:34;20.40;90.70
2477;DHT22;1249;51.270;6.756;2023-05-29T03:24:01;20.40;90.70
2477;DHT22;1249;51.270;6.756;2023-05-29T03:26:28;20.30;90.90
2477;DHT22;1249;51.270;6.756;2023-05-29T03:28:53;20.30;91.00
2477;DHT22;1249;51.270;6.756;2023-05-29T03:31:19;20.30;91.10
2477;DHT22;1249;51.270;6.756;2023-05-29T03:33:45;20.30;91.10
2477;DHT22;1249;51.270;6.756;2023-05-29T03:36:10;20.30;91.20
2477;DHT22;1249;51.270;6.756;2023-05-29T03:38:36;20.30;91.30
2477;DHT22;1249;51.270;6.756;2023-05-29T03:41:02;20.30;91.50
2477;DHT22;1249;51.270;6.756;2023-05-29T03:43:27;20.30;91.50
2477;DHT22;1249;51.270;6.756;2023-05-29T03:45:53;20.20;91.50
2477;DHT22;1249;51.270;6.756;2023-05-29T03:48:18;20.20;91.40
2477;DHT22;1249;51.270;6.756;2023-05-29T03:50:45;20.30;91.70
2477;DHT22;1249;51.270;6.756;2023-05-29T03:53:11;20.20;91.50
2477;DHT22;1249;51.270;6.756;2023-05-29T03:55:37;20.20;91.70
2477;DHT22;1249;51.270;6.756;2023-05-29T03:58:02;20.20;91.80
2477;DHT22;1249;51.270;6.756;2023-05-29T04:00:28;20.20;91.90
2477;DHT22;1249;51.270;6.756;2023-05-29T04:02:55;20.20;91.80
2477;DHT22;1249;51.270;6.756;2023-05-29T04:05:20;20.20;91.90
2477;DHT22;1249;51.270;6.756;2023-05-29T04:07:46;20.20;92.00
2477;DHT22;1249;51.270;6.756;2023-05-29T04:10:11;20.30;92.00
2477;DHT22;1249;51.270;6.756;2023-05-29T04:12:37;20.20;91.90
2477;DHT22;1249;51.270;6.756;2023-05-29T04:15:03;20.20;92.00
2477;DHT22;1249;51.270;6.756;2023-05-29T04:17:29;20.20;92.00
2477;DHT22;1249;51.270;6.756;2023-05-29T04:19:54;20.20;92.10
2477;DHT22;1249;51.270;6.756;2023-05-29T04:22:20;20.20;92.00
2477;DHT22;1249;51.270;6.756;2023-05-29T04:24:46;20.10;92.10
2477;DHT22;1249;51.270;6.756;2023-05-29T04:27:11;20.10;92.30
2477;DHT22;1249;51.270;6.756;2023-05-29T04:29:41;20.10;92.40
2477;DHT22;1249;51.270;6.756;2023-05-29T04:32:08;20.10;92.50
2477;DHT22;1249;51.270;6.756;2023-05-29T04:34:35;20.10;92.60
2477;DHT22;1249;51.270;6.756;2023-05-29T04:37:01;20.10;92.70
2477;DHT22;1249;51.270;6.756;2023-05-29T04:39:28;20.00;92.80
2477;DHT22;1249;51.270;6.756;2023-05-29T04:41:54;20.10;92.70
2477;DHT22;1249;51.270;6.756;2023-05-29T04:44:21;20.10;92.70
2477;DHT22;1249;51.270;6.756;2023-05-29T04:46:47;20.10;92.60
2477;DHT22;1249;51.270;6.756;2023-05-29T04:49:13;20.10;92.70
2477;DHT22;1249;51.270;6.756;2023-05-29T04:51:39;20.10;92.60
2477;DHT22;1249;51.270;6.756;2023-05-29T04:54:08;20.10;92.70
2477;DHT22;1249;51.270;6.756;2023-05-29T04:56:37;20.10;92.60
2477;DHT22;1249;51.270;6.756;2023-05-29T04:59:03;20.10;92.60
2477;DHT22;1249;51.270;6.756;2023-05-29T05:01:28;20.20;92.60
2477;DHT22;1249;51.270;6.756;2023-05-29T05:03:54;20.20;92.40
2477;DHT22;1249;51.270;6.756;2023-05-29T05:06:23;20.20;92.30
2477;DHT22;1249;51.270;6.756;2023-05-29T05:08:51;20.10;92.40
2477;DHT22;1249;51.270;6.756;2023-05-29T05:11:17;20.10;92.60
2477;DHT22;1249;51.270;6.756;2023-05-29T05:13:43;20.10;92.60
2477;DHT22;1249;51.270;6.756;2023-05-29T05:16:08;20.10;92.60
2477;DHT22;1249;51.270;6.756;2023-05-29T05:18:35;20.20;92.70
2477;DHT22;1249;51.270;6.756;2023-05-29T05:21:00;20.20;92.30
2477;DHT22;1249;51.270;6.756;2023-05-29T05:23:28;20.10;91.80
2477;DHT22;1249;51.270;6.756;2023-05-29T05:25:53;20.10;91.90
2477;DHT22;1249;51.270;6.756;2023-05-29T05:28:19;20.10;91.70
2477;DHT22;1249;51.270;6.756;2023-05-29T05:30:44;20.10;91.70
2477;DHT22;1249;51.270;6.756;2023-05-29T05:33:10;20.20;91.70
2477;DHT22;1249;51.270;6.756;2023-05-29T05:35:36;20.20;91.90
2477;DHT22;1249;51.270;6.756;2023-05-29T05:38:02;20.20;92.50
2477;DHT22;1249;51.270;6.756;2023-05-29T05:40:28;20.20;92.20
2477;DHT22;1249;51.270;6.756;2023-05-29T05:42:53;20.40;92.60
2477;DHT22;1249;51.270;6.756;2023-05-29T05:45:19;20.40;92.80
2477;DHT22;1249;51.270;6.756;2023-05-29T05:47:46;20.50;92.80
2477;DHT22;1249;51.270;6.756;2023-05-29T05:50:12;20.60;93.20
2477;DHT22;1249;51.270;6.756;2023-05-29T05:52:38;20.70;94.30
2477;DHT22;1249;51.270;6.756;2023-05-29T05:55:04;20.70;95.10
2477;DHT22;1249;51.270;6.756;2023-05-29T05:57:29;20.90;94.30
2477;DHT22;1249;51.270;6.756;2023-05-29T05:59:58;20.90;92.20
2477;DHT22;1249;51.270;6.756;2023-05-29T06:02:23;21.10;91.90
2477;DHT22;1249;51.270;6.756;2023-05-29T06:04:49;21.30;90.90
2477;DHT22;1249;51.270;6.756;2023-05-29T06:07:15;21.60;90.80
2477;DHT22;1249;51.270;6.756;2023-05-29T06:09:40;21.80;89.10
2477;DHT22;1249;51.270;6.756;2023-05-29T06:12:07;22.00;86.80
2477;DHT22;1249;51.270;6.756;2023-05-29T06:14:34;22.30;85.20
2477;DHT22;1249;51.270;6.756;2023-05-29T06:17:00;22.40;84.10
2477;DHT22;1249;51.270;6.756;2023-05-29T06:19:25;22.50;83.00
2477;DHT22;1249;51.270;6.756;2023-05-29T06:21:51;22.80;81.10
2477;DHT22;1249;51.270;6.756;2023-05-29T06:24:16;23.00;80.80
2477;DHT22;1249;51.270;6.756;2023-05-29T06:26:42;23.20;78.50
2477;DHT22;1249;51.270;6.756;2023-05-29T06:29:08;23.40;77.10
2477;DHT22;1249;51.270;6.756;2023-05-29T06:31:33;23.60;75.90
2477;DHT22;1249;51.270;6.756;2023-05-29T06:33:59;23.70;74.20
2477;DHT22;1249;51.270;6.756;2023-05-29T06:36:24;23.90;73.70
2477;DHT22;1249;51.270;6.756;2023-05-29T06:38:51;23.90;72.10
2477;DHT22;1249;51.270;6.756;2023-05-29T06:41:17;24.00;72.00
2477;DHT22;1249;51.270;6.756;2023-05-29T06:43:43;24.20;70.70
2477;DHT22;1249;51.270;6.756;2023-05-29T06:46:08;24.30;69.50
2477;DHT22;1249;51.270;6.756;2023-05-29T06:48:35;24.30;68.60
2477;DHT22;1249;51.270;6.756;2023-05-29T06:51:04;24.40;68.10
2477;DHT22;1249;51.270;6.756;2023-05-29T06:53:39;24.70;67.80
2477;DHT22;1249;51.270;6.756;2023-05-29T06:56:05;25.00;66.60
2477;DHT22;1249;51.270;6.756;2023-05-29T06:58:31;25.20;65.40
2477;DHT22;1249;51.270;6.756;2023-05-29T07:00:57;25.40;64.10
2477;DHT22;1249;51.270;6.756;2023-05-29T07:03:25;25.60;63.00
2477;DHT22;1249;51.270;6.756;2023-05-29T07:05:51;25.80;61.90
2477;DHT22;1249;51.270;6.756;2023-05-29T07:08:17;26.00;61.10
2477;DHT22;1249;51.270;6.756;2023-05-29T07:10:42;26.10;60.40
2477;DHT22;1249;51.270;6.756;2023-05-29T07:13:08;26.20;60.50
2477;DHT22;1249;51.270;6.756;2023-05-29T07:15:34;26.20;60.00
2477;DHT22;1249;51.270;6.756;2023-05-29T07:17:59;26.20;59.10
2477;DHT22;1249;51.270;6.756;2023-05-29T07:20:25;26.40;58.50
2477;DHT22;1249;51.270;6.756;2023-05-29T07:22:51;26.60;58.10
2477;DHT22;1249;51.270;6.756;2023-05-29T07:25:16;26.80;57.50
2477;DHT22;1249;51.270;6.756;2023-05-29T07:27:42;26.90;57.00
2477;DHT22;1249;51.270;6.756;2023-05-29T07:30:07;27.00;56.80
2477;DHT22;1249;51.270;6.756;2023-05-29T07:32:33;27.10;56.60
2477;DHT22;1249;51.270;6.756;2023-05-29T07:34:59;27.10;56.50
2477;DHT22;1249;51.270;6.756;2023-05-29T07:37:25;27.20;56.60
2477;DHT22;1249;51.270;6.756;2023-05-29T07:39:50;27.20;56.70
2477;DHT22;1249;51.270;6.756;2023-05-29T07:42:16;27.40;56.80
2477;DHT22;1249;51.270;6.756;2023-05-29T07:44:42;27.50;56.70
2477;DHT22;1249;51.270;6.756;2023-05-29T07:47:08;27.50;56.40
2477;DHT22;1249;51.270;6.756;2023-05-29T07:49:34;27.50;56.00
2477;DHT22;1249;51.270;6.756;2023-05-29T07:52:01;27.70;55.40
2477;DHT22;1249;51.270;6.756;2023-05-29T07:54:27;27.70;54.70
2477;DHT22;1249;51.270;6.756;2023-05-29T07:56:52;27.90;54.20
2477;DHT22;1249;51.270;6.756;2023-05-29T07:59:18;28.00;53.60
2477;DHT22;1249;51.270;6.756;2023-05-29T08:01:43;28.00;53.40
2477;DHT22;1249;51.270;6.756;2023-05-29T08:04:09;28.00;53.20
2477;DHT22;1249;51.270;6.756;2023-05-29T08:06:35;28.10;53.10
2477;DHT22;1249;51.270;6.756;2023-05-29T08:09:01;28.20;52.90
2477;DHT22;1249;51.270;6.756;2023-05-29T08:11:27;28.10;52.80
2477;DHT22;1249;51.270;6.756;2023-05-29T08:13:53;28.30;52.60
2477;DHT22;1249;51.270;6.756;2023-05-29T08:16:18;28.40;52.40
2477;DHT22;1249;51.270;6.756;2023-05-29T08:18:44;28.50;52.10
2477;DHT22;1249;51.270;6.756;2023-05-29T08:21:09;28.60;51.80
2477;DHT22;1249;51.270;6.756;2023-05-29T08:23:35;28.70;51.70
2477;DHT22;1249;51.270;6.756;2023-05-29T08:26:01;28.80;51.30
2477;DHT22;1249;51.270;6.756;2023-05-29T08:28:28;28.80;51.10
2477;DHT22;1249;51.270;6.756;2023-05-29T08:30:53;29.00;51.20
2477;DHT22;1249;51.270;6.756;2023-05-29T08:33:19;29.00;51.10
2477;DHT22;1249;51.270;6.756;2023-05-29T08:35:44;29.10;51.10
2477;DHT22;1249;51.270;6.756;2023-05-29T08:38:10;29.20;50.80
2477;DHT22;1249;51.270;6.756;2023-05-29T08:40:36;29.30;50.70
2477;DHT22;1249;51.270;6.756;2023-05-29T08:43:18;29.50;51.30
2477;DHT22;1249;51.270;6.756;2023-05-29T08:45:45;29.70;51.20
2477;DHT22;1249;51.270;6.756;2023-05-29T08:48:12;29.80;51.00
2477;DHT22;1249;51.270;6.756;2023-05-29T08:50:46;29.90;50.70
2477;DHT22;1249;51.270;6.756;2023-05-29T08:53:13;30.00;50.60
2477;DHT22;1249;51.270;6.756;2023-05-29T08:55:39;30.10;50.70
2477;DHT22;1249;51.270;6.756;2023-05-29T08:58:05;30.10;50.70
2477;DHT22;1249;51.270;6.756;2023-05-29T09:00:32;30.30;50.50
2477;DHT22;1249;51.270;6.756;2023-05-29T09:02:58;30.50;50.40
2477;DHT22;1249;51.270;6.756;2023-05-29T09:05:25;30.70;50.40
2477;DHT22;1249;51.270;6.756;2023-05-29T09:07:53;31.00;50.10
2477;DHT22;1249;51.270;6.756;2023-05-29T09:10:19;31.10;49.90
2477;DHT22;1249;51.270;6.756;2023-05-29T09:12:46;31.30;49.70
2477;DHT22;1249;51.270;6.756;2023-05-29T09:15:22;31.50;49.60
2477;DHT22;1249;51.270;6.756;2023-05-29T09:17:55;31.70;49.40
2477;DHT22;1249;51.270;6.756;2023-05-29T09:20:22;31.80;49.10
2477;DHT22;1249;51.270;6.756;2023-05-29T09:22:57;32.00;49.20
2477;DHT22;1249;51.270;6.756;2023-05-29T09:25:24;32.10;49.10
2477;DHT22;1249;51.270;6.756;2023-05-29T09:27:58;32.30;48.80
2477;DHT22;1249;51.270;6.756;2023-05-29T09:30:38;32.50;48.40
2477;DHT22;1249;51.270;6.756;2023-05-29T09:33:05;32.60;48.20
2477;DHT22;1249;51.270;6.756;2023-05-29T09:35:39;32.70;48.20
2477;DHT22;1249;51.270;6.756;2023-05-29T09:38:06;32.80;48.00
2477;DHT22;1249;51.270;6.756;2023-05-29T09:40:34;32.90;47.70
2477;DHT22;1249;51.270;6.756;2023-05-29T09:43:13;33.00;47.50
2477;DHT22;1249;51.270;6.756;2023-05-29T09:45:40;33.10;47.50
2477;DHT22;1249;51.270;6.756;2023-05-29T09:48:07;33.20;47.30
2477;DHT22;1249;51.270;6.756;2023-05-29T09:50:34;33.50;47.50
2477;DHT22;1249;51.270;6.756;2023-05-29T09:52:59;33.70;47.00
2477;DHT22;1249;51.270;6.756;2023-05-29T09:55:27;33.80;47.30
2477;DHT22;1249;51.270;6.756;2023-05-29T09:57:54;34.00;47.40
2477;DHT22;1249;51.270;6.756;2023-05-29T10:00:20;34.10;46.70
2477;DHT22;1249;51.270;6.756;2023-05-29T10:02:48;34.30;46.60
2477;DHT22;1249;51.270;6.756;2023-05-29T10:05:14;34.50;46.50
2477;DHT22;1249;51.270;6.756;2023-05-29T10:07:45;34.70;46.30
2477;DHT22;1249;51.270;6.756;2023-05-29T10:10:16;34.90;46.00
2477;DHT22;1249;51.270;6.756;2023-05-29T10:12:48;35.10;45.50
2477;DHT22;1249;51.270;6.756;2023-05-29T10:15:16;35.30;45.50
2477;DHT22;1249;51.270;6.756;2023-05-29T10:18:03;35.50;45.40
2477;DHT22;1249;51.270;6.756;2023-05-29T10:20:31;35.70;45.30
2477;DHT22;1249;51.270;6.756;2023-05-29T10:23:00;35.80;44.70
2477;DHT22;1249;51.270;6.756;2023-05-29T10:25:27;36.00;44.20
2477;DHT22;1249;51.270;6.756;2023-05-29T10:27:55;36.10;43.40
2477;DHT22;1249;51.270;6.756;2023-05-29T10:36:13;36.50;42.10
2477;DHT22;1249;51.270;6.756;2023-05-29T10:38:41;36.70;42.00
2477;DHT22;1249;51.270;6.756;2023-05-29T10:43:55;36.90;41.40
2477;DHT22;1249;51.270;6.756;2023-05-29T10:46:21;36.90;41.30
2477;DHT22;1249;51.270;6.756;2023-05-29T10:48:49;36.90;41.10
2477;DHT22;1249;51.270;6.756;2023-05-29T10:51:28;37.00;41.40
2477;DHT22;1249;51.270;6.756;2023-05-29T10:53:56;37.20;41.00
2477;DHT22;1249;51.270;6.756;2023-05-29T10:56:27;37.30;40.60
2477;DHT22;1249;51.270;6.756;2023-05-29T10:58:55;37.40;40.30
2477;DHT22;1249;51.270;6.756;2023-05-29T11:01:22;37.60;40.50
2477;DHT22;1249;51.270;6.756;2023-05-29T11:03:48;37.70;40.20
2477;DHT22;1249;51.270;6.756;2023-05-29T11:06:19;38.00;39.90
2477;DHT22;1249;51.270;6.756;2023-05-29T11:08:53;38.30;39.60
2477;DHT22;1249;51.270;6.756;2023-05-29T11:11:32;38.40;39.40
2477;DHT22;1249;51.270;6.756;2023-05-29T11:14:05;38.50;39.40
2477;DHT22;1249;51.270;6.756;2023-05-29T11:18:58;38.90;38.90
2477;DHT22;1249;51.270;6.756;2023-05-29T11:23:53;39.20;38.50
2477;DHT22;1249;51.270;6.756;2023-05-29T11:26:23;39.30;38.40
2477;DHT22;1249;51.270;6.756;2023-05-29T11:28:49;39.30;38.20
2477;DHT22;1249;51.270;6.756;2023-05-29T11:31:15;39.40;38.30
2477;DHT22;1249;51.270;6.756;2023-05-29T11:33:48;39.50;38.10
2477;DHT22;1249;51.270;6.756;2023-05-29T11:36:15;39.50;37.90
2477;DHT22;1249;51.270;6.756;2023-05-29T11:38:41;39.70;37.90
2477;DHT22;1249;51.270;6.756;2023-05-29T11:41:07;39.80;37.60
2477;DHT22;1249;51.270;6.756;2023-05-29T11:43:34;39.90;37.50
2477;DHT22;1249;51.270;6.756;2023-05-29T11:45:59;40.10;37.40
2477;DHT22;1249;51.270;6.756;2023-05-29T11:48:25;40.20;37.20
2477;DHT22;1249;51.270;6.756;2023-05-29T11:50:51;40.20;36.90
2477;DHT22;1249;51.270;6.756;2023-05-29T11:53:16;40.30;36.80
2477;DHT22;1249;51.270;6.756;2023-05-29T11:55:43;40.30;36.50
2477;DHT22;1249;51.270;6.756;2023-05-29T11:58:09;40.30;36.50
2477;DHT22;1249;51.270;6.756;2023-05-29T12:00:36;40.40;36.30
2477;DHT22;1249;51.270;6.756;2023-05-29T12:03:02;40.50;36.20
2477;DHT22;1249;51.270;6.756;2023-05-29T12:05:38;40.60;36.40
2477;DHT22;1249;51.270;6.756;2023-05-29T12:08:09;40.60;36.50
2477;DHT22;1249;51.270;6.756;2023-05-29T12:10:35;40.60;36.50
2477;DHT22;1249;51.270;6.756;2023-05-29T12:13:01;40.70;36.50
2477;DHT22;1249;51.270;6.756;2023-05-29T12:15:26;40.80;36.30
2477;DHT22;1249;51.270;6.756;2023-05-29T12:17:53;40.90;36.10
2477;DHT22;1249;51.270;6.756;2023-05-29T12:20:23;40.90;36.10
2477;DHT22;1249;51.270;6.756;2023-05-29T12:22:51;41.00;35.90
2477;DHT22;1249;51.270;6.756;2023-05-29T12:25:20;41.10;35.80
2477;DHT22;1249;51.270;6.756;2023-05-29T12:27:48;41.10;35.50
2477;DHT22;1249;51.270;6.756;2023-05-29T12:30:20;41.10;35.50
2477;DHT22;1249;51.270;6.756;2023-05-29T12:32:50;41.10;35.30
2477;DHT22;1249;51.270;6.756;2023-05-29T12:35:21;41.20;35.30
2477;DHT22;1249;51.270;6.756;2023-05-29T12:37:56;41.10;35.20
2477;DHT22;1249;51.270;6.756;2023-05-29T12:40:26;41.10;35.10
2477;DHT22;1249;51.270;6.756;2023-05-29T12:42:59;41.00;35.30
2477;DHT22;1249;51.270;6.756;2023-05-29T12:45:27;41.00;35.40
2477;DHT22;1249;51.270;6.756;2023-05-29T12:47:54;41.10;35.50
2477;DHT22;1249;51.270;6.756;2023-05-29T12:50:50;41.30;35.30
2477;DHT22;1249;51.270;6.756;2023-05-29T12:53:15;41.60;35.30
2477;DHT22;1249;51.270;6.756;2023-05-29T12:55:43;41.90;35.00
2477;DHT22;1249;51.270;6.756;2023-05-29T12:58:11;42.20;34.80
2477;DHT22;1249;51.270;6.756;2023-05-29T13:00:37;42.30;34.60
2477;DHT22;1249;51.270;6.756;2023-05-29T13:03:04;42.30;34.40
2477;DHT22;1249;51.270;6.756;2023-05-29T13:05:31;42.30;34.20
2477;DHT22;1249;51.270;6.756;2023-05-29T13:07:57;42.30;34.20
2477;DHT22;1249;51.270;6.756;2023-05-29T13:10:24;42.30;34.20
2477;DHT22;1249;51.270;6.756;2023-05-29T13:12:50;42.10;34.20
2477;DHT22;1249;51.270;6.756;2023-05-29T13:15:19;41.80;34.40
2477;DHT22;1249;51.270;6.756;2023-05-29T13:17:45;41.40;34.40
2477;DHT22;1249;51.270;6.756;2023-05-29T13:20:12;41.20;34.70
2477;DHT22;1249;51.270;6.756;2023-05-29T13:22:38;40.90;35.60
2477;DHT22;1249;51.270;6.756;2023-05-29T13:25:05;40.60;35.10
2477;DHT22;1249;51.270;6.756;2023-05-29T13:27:38;40.40;35.40
2477;DHT22;1249;51.270;6.756;2023-05-29T13:30:05;40.20;35.60
2477;DHT22;1249;51.270;6.756;2023-05-29T13:32:31;40.00;35.90
2477;DHT22;1249;51.270;6.756;2023-05-29T13:34:56;39.80;36.00
2477;DHT22;1249;51.270;6.756;2023-05-29T13:37:22;39.60;36.10
2477;DHT22;1249;51.270;6.756;2023-05-29T13:39:48;39.60;36.30
2477;DHT22;1249;51.270;6.756;2023-05-29T13:42:14;39.50;36.30
2477;DHT22;1249;51.270;6.756;2023-05-29T13:44:39;39.40;36.30
2477;DHT22;1249;51.270;6.756;2023-05-29T13:47:06;39.30;36.20
2477;DHT22;1249;51.270;6.756;2023-05-29T13:49:33;39.10;36.20
2477;DHT22;1249;51.270;6.756;2023-05-29T13:51:58;39.00;36.50
2477;DHT22;1249;51.270;6.756;2023-05-29T13:54:24;38.80;36.70
2477;DHT22;1249;51.270;6.756;2023-05-29T13:56:49;38.70;37.00
2477;DHT22;1249;51.270;6.756;2023-05-29T13:59:15;38.50;37.20
2477;DHT22;1249;51.270;6.756;2023-05-29T14:01:41;38.30;37.20
2477;DHT22;1249;51.270;6.756;2023-05-29T14:04:06;38.10;37.20
2477;DHT22;1249;51.270;6.756;2023-05-29T14:06:33;37.90;37.20
2477;DHT22;1249;51.270;6.756;2023-05-29T14:08:59;37.70;37.30
2477;DHT22;1249;51.270;6.756;2023-05-29T14:11:25;37.30;37.20
2477;DHT22;1249;51.270;6.756;2023-05-29T14:13:52;37.10;37.60
2477;DHT22;1249;51.270;6.756;2023-05-29T14:16:17;36.80;37.80
2477;DHT22;1249;51.270;6.756;2023-05-29T14:18:43;36.50;38.10
2477;DHT22;1249;51.270;6.756;2023-05-29T14:21:08;36.30;38.40
2477;DHT22;1249;51.270;6.756;2023-05-29T14:23:36;36.00;38.70
2477;DHT22;1249;51.270;6.756;2023-05-29T14:26:02;35.70;38.90
2477;DHT22;1249;51.270;6.756;2023-05-29T14:28:28;35.50;39.40
2477;DHT22;1249;51.270;6.756;2023-05-29T14:30:53;35.30;39.60
2477;DHT22;1249;51.270;6.756;2023-05-29T14:33:19;35.30;39.90
2477;DHT22;1249;51.270;6.756;2023-05-29T14:35:44;35.30;39.80
2477;DHT22;1249;51.270;6.756;2023-05-29T14:38:10;35.40;39.70
2477;DHT22;1249;51.270;6.756;2023-05-29T14:40:36;35.50;39.90
2477;DHT22;1249;51.270;6.756;2023-05-29T14:43:02;35.70;40.00
2477;DHT22;1249;51.270;6.756;2023-05-29T14:45:28;35.80;39.60
2477;DHT22;1249;51.270;6.756;2023-05-29T14:47:54;36.00;39.40
2477;DHT22;1249;51.270;6.756;2023-05-29T14:50:19;36.10;38.90
2477;DHT22;1249;51.270;6.756;2023-05-29T14:52:45;36.00;38.60
2477;DHT22;1249;51.270;6.756;2023-05-29T14:55:12;36.10;38.80
2477;DHT22;1249;51.270;6.756;2023-05-29T14:57:40;36.20;38.80
2477;DHT22;1249;51.270;6.756;2023-05-29T15:00:06;36.30;38.70
2477;DHT22;1249;51.270;6.756;2023-05-29T15:02:33;36.30;38.60
2477;DHT22;1249;51.270;6.756;2023-05-29T15:04:58;36.30;38.30
2477;DHT22;1249;51.270;6.756;2023-05-29T15:07:24;36.20;38.10
2477;DHT22;1249;51.270;6.756;2023-05-29T15:09:49;36.30;38.30
2477;DHT22;1249;51.270;6.756;2023-05-29T15:12:15;36.40;38.20
2477;DHT22;1249;51.270;6.756;2023-05-29T15:14:40;36.60;37.80
2477;DHT22;1249;51.270;6.756;2023-05-29T15:17:06;37.00;37.70
2477;DHT22;1249;51.270;6.756;2023-05-29T15:19:32;37.20;37.50
2477;DHT22;1249;51.270;6.756;2023-05-29T15:21:57;37.50;37.30
2477;DHT22;1249;51.270;6.756;2023-05-29T15:24:23;37.50;37.20
2477;DHT22;1249;51.270;6.756;2023-05-29T15:26:49;37.60;37.20
2477;DHT22;1249;51.270;6.756;2023-05-29T15:29:15;37.70;37.70
2477;DHT22;1249;51.270;6.756;2023-05-29T15:31:41;37.80;36.90
2477;DHT22;1249;51.270;6.756;2023-05-29T15:34:06;37.90;36.60
2477;DHT22;1249;51.270;6.756;2023-05-29T15:36:32;37.90;36.50
2477;DHT22;1249;51.270;6.756;2023-05-29T15:38:58;37.80;36.70
2477;DHT22;1249;51.270;6.756;2023-05-29T15:41:24;37.90;36.40
2477;DHT22;1249;51.270;6.756;2023-05-29T15:43:54;37.90;36.10
2477;DHT22;1249;51.270;6.756;2023-05-29T15:46:21;38.00;36.60
2477;DHT22;1249;51.270;6.756;2023-05-29T15:48:46;38.00;36.30
2477;DHT22;1249;51.270;6.756;2023-05-29T15:51:12;38.00;36.30
2477;DHT22;1249;51.270;6.756;2023-05-29T15:53:38;37.90;36.30
2477;DHT22;1249;51.270;6.756;2023-05-29T15:56:03;37.90;36.10
2477;DHT22;1249;51.270;6.756;2023-05-29T15:58:29;37.80;36.00
2477;DHT22;1249;51.270;6.756;2023-05-29T16:00:55;37.70;35.80
2477;DHT22;1249;51.270;6.756;2023-05-29T16:03:20;37.60;35.80
2477;DHT22;1249;51.270;6.756;2023-05-29T16:05:46;37.50;35.80
2477;DHT22;1249;51.270;6.756;2023-05-29T16:08:11;37.30;35.90
2477;DHT22;1249;51.270;6.756;2023-05-29T16:10:38;37.30;35.90
2477;DHT22;1249;51.270;6.756;2023-05-29T16:13:06;37.20;35.80
2477;DHT22;1249;51.270;6.756;2023-05-29T16:15:32;37.10;35.70
2477;DHT22;1249;51.270;6.756;2023-05-29T16:17:57;37.00;35.60